sensor_id;sensor_type;location;lat;lon;timestamp;P1;durP1;ratioP1;P2;durP2;ratioP2
39958;SDS011;25639;53.634;9.880;2023-07-31T00:00:10;8.77;;;2.97;;
39958;SDS011;25639;53.634;9.880;2023-07-31T00:02:36;9.35;;;2.47;;
39958;SDS011;25639;53.634;9.880;2023-07-31T00:05:01;11.13;;;2.80;;
39958;SDS011;25639;53.634;9.880;2023-07-31T00:07:26;9.35;;;3.22;;
39958;SDS011;25639;53.634;9.880;2023-07-31T00:09:52;10.77;;;3.42;;
39958;SDS011;25639;53.634;9.880;2023-07-31T00:12:18;11.68;;;3.63;;
39958;SDS011;25639;53.634;9.880;2023-07-31T00:14:44;8.18;;;2.72;;
39958;SDS011;25639;53.634;9.880;2023-07-31T00:17:09;11.52;;;3.10;;
39958;SDS011;25639;53.634;9.880;2023-07-31T00:19:34;11.40;;;3.00;;
39958;SDS011;25639;53.634;9.880;2023-07-31T00:22:00;12.27;;;3.17;;
39958;SDS011;25639;53.634;9.880;2023-07-31T00:24:25;13.80;;;3.22;;
39958;SDS011;25639;53.634;9.880;2023-07-31T00:26:50;16.02;;;3.00;;
39958;SDS011;25639;53.634;9.880;2023-07-31T00:29:16;11.98;;;3.08;;
39958;SDS011;25639;53.634;9.880;2023-07-31T00:31:41;11.77;;;3.30;;
39958;SDS011;25639;53.634;9.880;2023-07-31T00:34:06;7.70;;;2.92;;
39958;SDS011;25639;53.634;9.880;2023-07-31T00:36:31;11.00;;;3.22;;
39958;SDS011;25639;53.634;9.880;2023-07-31T00:38:57;14.25;;;3.17;;
39958;SDS011;25639;53.634;9.880;2023-07-31T00:41:22;11.68;;;3.20;;
39958;SDS011;25639;53.634;9.880;2023-07-31T00:43:47;12.15;;;3.45;;
39958;SDS011;25639;53.634;9.880;2023-07-31T00:46:12;16.27;;;3.10;;
39958;SDS011;25639;53.634;9.880;2023-07-31T00:48:38;12.07;;;3.00;;
39958;SDS011;25639;53.634;9.880;2023-07-31T00:51:04;9.77;;;2.92;;
39958;SDS011;25639;53.634;9.880;2023-07-31T00:53:29;12.05;;;3.05;;
39958;SDS011;25639;53.634;9.880;2023-07-31T00:55:55;15.35;;;2.65;;
39958;SDS011;25639;53.634;9.880;2023-07-31T00:58:21;16.02;;;3.22;;
39958;SDS011;25639;53.634;9.880;2023-07-31T01:00:46;10.00;;;2.80;;
39958;SDS011;25639;53.634;9.880;2023-07-31T01:03:15;7.28;;;2.60;;
39958;SDS011;25639;53.634;9.880;2023-07-31T01:05:56;18.83;;;3.95;;
39958;SDS011;25639;53.634;9.880;2023-07-31T01:08:36;15.30;;;3.10;;
39958;SDS011;25639;53.634;9.880;2023-07-31T01:11:17;10.43;;;3.20;;
39958;SDS011;25639;53.634;9.880;2023-07-31T01:13:48;11.40;;;3.03;;
39958;SDS011;25639;53.634;9.880;2023-07-31T01:16:14;11.63;;;3.35;;
39958;SDS011;25639;53.634;9.880;2023-07-31T01:18:39;12.45;;;3.50;;
39958;SDS011;25639;53.634;9.880;2023-07-31T01:27:04;13.90;;;3.67;;
39958;SDS011;25639;53.634;9.880;2023-07-31T01:29:38;15.05;;;3.13;;
39958;SDS011;25639;53.634;9.880;2023-07-31T01:32:11;10.15;;;3.45;;
39958;SDS011;25639;53.634;9.880;2023-07-31T01:34:37;12.90;;;3.67;;
39958;SDS011;25639;53.634;9.880;2023-07-31T01:37:04;15.13;;;3.50;;
39958;SDS011;25639;53.634;9.880;2023-07-31T01:39:30;14.23;;;3.45;;
39958;SDS011;25639;53.634;9.880;2023-07-31T01:41:55;13.23;;;3.10;;
39958;SDS011;25639;53.634;9.880;2023-07-31T01:44:20;11.80;;;3.85;;
39958;SDS011;25639;53.634;9.880;2023-07-31T01:46:45;19.67;;;4.10;;
39958;SDS011;25639;53.634;9.880;2023-07-31T01:49:11;14.30;;;4.18;;
39958;SDS011;25639;53.634;9.880;2023-07-31T01:51:36;10.63;;;3.05;;
39958;SDS011;25639;53.634;9.880;2023-07-31T01:54:01;13.95;;;3.90;;
39958;SDS011;25639;53.634;9.880;2023-07-31T01:56:27;13.80;;;3.92;;
39958;SDS011;25639;53.634;9.880;2023-07-31T01:58:52;16.13;;;3.85;;
39958;SDS011;25639;53.634;9.880;2023-07-31T02:01:18;13.75;;;3.90;;
39958;SDS011;25639;53.634;9.880;2023-07-31T02:03:43;9.18;;;3.63;;
39958;SDS011;25639;53.634;9.880;2023-07-31T02:06:08;13.38;;;3.83;;
39958;SDS011;25639;53.634;9.880;2023-07-31T02:08:33;21.00;;;4.45;;
39958;SDS011;25639;53.634;9.880;2023-07-31T02:10:59;14.43;;;4.13;;
39958;SDS011;25639;53.634;9.880;2023-07-31T02:13:24;18.42;;;3.58;;
39958;SDS011;25639;53.634;9.880;2023-07-31T02:15:49;15.00;;;4.18;;
39958;SDS011;25639;53.634;9.880;2023-07-31T02:18:15;18.30;;;4.22;;
39958;SDS011;25639;53.634;9.880;2023-07-31T02:20:41;10.20;;;4.07;;
39958;SDS011;25639;53.634;9.880;2023-07-31T02:23:06;12.10;;;4.35;;
39958;SDS011;25639;53.634;9.880;2023-07-31T02:25:31;9.27;;;3.67;;
39958;SDS011;25639;53.634;9.880;2023-07-31T02:27:56;15.25;;;4.22;;
39958;SDS011;25639;53.634;9.880;2023-07-31T02:30:22;16.77;;;4.93;;
39958;SDS011;25639;53.634;9.880;2023-07-31T02:32:47;14.68;;;4.20;;
39958;SDS011;25639;53.634;9.880;2023-07-31T02:35:12;11.40;;;3.92;;
39958;SDS011;25639;53.634;9.880;2023-07-31T02:37:40;19.98;;;4.75;;
39958;SDS011;25639;53.634;9.880;2023-07-31T02:40:07;11.60;;;4.22;;
39958;SDS011;25639;53.634;9.880;2023-07-31T02:42:32;14.07;;;4.30;;
39958;SDS011;25639;53.634;9.880;2023-07-31T02:44:57;16.95;;;4.88;;
39958;SDS011;25639;53.634;9.880;2023-07-31T02:47:23;14.43;;;4.13;;
39958;SDS011;25639;53.634;9.880;2023-07-31T02:49:48;14.18;;;4.43;;
39958;SDS011;25639;53.634;9.880;2023-07-31T02:52:13;14.90;;;4.53;;
39958;SDS011;25639;53.634;9.880;2023-07-31T02:54:39;15.98;;;4.95;;
39958;SDS011;25639;53.634;9.880;2023-07-31T02:57:04;10.38;;;4.20;;
39958;SDS011;25639;53.634;9.880;2023-07-31T02:59:29;11.38;;;4.13;;
39958;SDS011;25639;53.634;9.880;2023-07-31T03:01:55;13.90;;;4.38;;
39958;SDS011;25639;53.634;9.880;2023-07-31T03:04:20;17.13;;;4.82;;
39958;SDS011;25639;53.634;9.880;2023-07-31T03:06:45;18.83;;;4.50;;
39958;SDS011;25639;53.634;9.880;2023-07-31T03:09:10;15.20;;;4.80;;
39958;SDS011;25639;53.634;9.880;2023-07-31T03:11:36;13.15;;;4.60;;
39958;SDS011;25639;53.634;9.880;2023-07-31T03:14:01;12.23;;;4.75;;
39958;SDS011;25639;53.634;9.880;2023-07-31T03:16:26;12.65;;;4.70;;
39958;SDS011;25639;53.634;9.880;2023-07-31T03:18:51;11.43;;;4.00;;
39958;SDS011;25639;53.634;9.880;2023-07-31T03:21:17;13.15;;;4.75;;
39958;SDS011;25639;53.634;9.880;2023-07-31T03:23:42;12.50;;;4.50;;
39958;SDS011;25639;53.634;9.880;2023-07-31T03:26:08;23.85;;;4.82;;
39958;SDS011;25639;53.634;9.880;2023-07-31T03:28:34;12.85;;;4.43;;
39958;SDS011;25639;53.634;9.880;2023-07-31T03:30:59;15.02;;;4.50;;
39958;SDS011;25639;53.634;9.880;2023-07-31T03:33:25;10.75;;;4.40;;
39958;SDS011;25639;53.634;9.880;2023-07-31T03:35:50;15.68;;;5.00;;
39958;SDS011;25639;53.634;9.880;2023-07-31T03:38:16;11.32;;;4.53;;
39958;SDS011;25639;53.634;9.880;2023-07-31T03:40:41;17.13;;;4.75;;
39958;SDS011;25639;53.634;9.880;2023-07-31T03:43:06;15.85;;;4.47;;
39958;SDS011;25639;53.634;9.880;2023-07-31T03:45:32;12.25;;;5.10;;
39958;SDS011;25639;53.634;9.880;2023-07-31T03:47:57;16.13;;;4.32;;
39958;SDS011;25639;53.634;9.880;2023-07-31T03:50:22;15.60;;;4.40;;
39958;SDS011;25639;53.634;9.880;2023-07-31T03:52:48;12.80;;;4.60;;
39958;SDS011;25639;53.634;9.880;2023-07-31T03:55:13;16.50;;;4.72;;
39958;SDS011;25639;53.634;9.880;2023-07-31T03:57:38;9.02;;;3.97;;
39958;SDS011;25639;53.634;9.880;2023-07-31T04:00:04;14.13;;;4.50;;
39958;SDS011;25639;53.634;9.880;2023-07-31T04:02:29;11.07;;;4.32;;
39958;SDS011;25639;53.634;9.880;2023-07-31T04:04:54;11.40;;;4.30;;
39958;SDS011;25639;53.634;9.880;2023-07-31T04:07:20;13.23;;;4.75;;
39958;SDS011;25639;53.634;9.880;2023-07-31T04:09:45;8.30;;;4.28;;
39958;SDS011;25639;53.634;9.880;2023-07-31T04:12:10;10.75;;;4.63;;
39958;SDS011;25639;53.634;9.880;2023-07-31T04:14:36;10.18;;;5.18;;
39958;SDS011;25639;53.634;9.880;2023-07-31T04:17:01;13.10;;;5.30;;
39958;SDS011;25639;53.634;9.880;2023-07-31T04:19:27;10.15;;;4.13;;
39958;SDS011;25639;53.634;9.880;2023-07-31T04:21:52;12.77;;;4.28;;
39958;SDS011;25639;53.634;9.880;2023-07-31T04:24:17;13.10;;;5.00;;
39958;SDS011;25639;53.634;9.880;2023-07-31T04:26:49;12.45;;;4.57;;
39958;SDS011;25639;53.634;9.880;2023-07-31T04:29:14;8.98;;;4.43;;
39958;SDS011;25639;53.634;9.880;2023-07-31T04:31:40;8.77;;;4.40;;
39958;SDS011;25639;53.634;9.880;2023-07-31T04:34:06;8.68;;;4.47;;
39958;SDS011;25639;53.634;9.880;2023-07-31T04:36:31;7.90;;;4.05;;
39958;SDS011;25639;53.634;9.880;2023-07-31T04:38:56;8.38;;;4.28;;
39958;SDS011;25639;53.634;9.880;2023-07-31T04:41:22;8.63;;;3.40;;
39958;SDS011;25639;53.634;9.880;2023-07-31T04:43:47;8.50;;;3.95;;
39958;SDS011;25639;53.634;9.880;2023-07-31T04:46:12;6.40;;;3.45;;
39958;SDS011;25639;53.634;9.880;2023-07-31T04:48:37;7.60;;;4.50;;
39958;SDS011;25639;53.634;9.880;2023-07-31T04:51:03;7.22;;;4.05;;
39958;SDS011;25639;53.634;9.880;2023-07-31T04:53:28;6.28;;;3.75;;
39958;SDS011;25639;53.634;9.880;2023-07-31T04:55:53;5.60;;;3.55;;
39958;SDS011;25639;53.634;9.880;2023-07-31T04:58:18;11.80;;;3.55;;
39958;SDS011;25639;53.634;9.880;2023-07-31T05:00:44;4.65;;;3.38;;
39958;SDS011;25639;53.634;9.880;2023-07-31T05:03:09;4.47;;;3.25;;
39958;SDS011;25639;53.634;9.880;2023-07-31T05:05:36;6.07;;;3.10;;
39958;SDS011;25639;53.634;9.880;2023-07-31T05:08:02;4.50;;;3.00;;
39958;SDS011;25639;53.634;9.880;2023-07-31T05:10:27;7.10;;;3.50;;
39958;SDS011;25639;53.634;9.880;2023-07-31T05:12:52;5.85;;;3.13;;
39958;SDS011;25639;53.634;9.880;2023-07-31T05:15:18;7.75;;;3.20;;
39958;SDS011;25639;53.634;9.880;2023-07-31T05:17:43;7.00;;;2.90;;
39958;SDS011;25639;53.634;9.880;2023-07-31T05:20:08;7.45;;;3.00;;
39958;SDS011;25639;53.634;9.880;2023-07-31T05:22:34;13.38;;;3.45;;
39958;SDS011;25639;53.634;9.880;2023-07-31T05:24:59;7.47;;;3.40;;
39958;SDS011;25639;53.634;9.880;2023-07-31T05:27:24;5.22;;;3.35;;
39958;SDS011;25639;53.634;9.880;2023-07-31T05:29:50;8.60;;;3.58;;
39958;SDS011;25639;53.634;9.880;2023-07-31T05:32:15;4.78;;;3.35;;
39958;SDS011;25639;53.634;9.880;2023-07-31T05:34:40;3.03;;;2.67;;
39958;SDS011;25639;53.634;9.880;2023-07-31T05:37:06;5.18;;;2.90;;
39958;SDS011;25639;53.634;9.880;2023-07-31T05:39:31;3.92;;;2.72;;
39958;SDS011;25639;53.634;9.880;2023-07-31T05:41:57;4.97;;;3.13;;
39958;SDS011;25639;53.634;9.880;2023-07-31T05:44:22;3.22;;;2.90;;
39958;SDS011;25639;53.634;9.880;2023-07-31T05:46:47;5.25;;;2.67;;
39958;SDS011;25639;53.634;9.880;2023-07-31T05:49:12;4.57;;;2.95;;
39958;SDS011;25639;53.634;9.880;2023-07-31T05:51:38;4.07;;;2.88;;
39958;SDS011;25639;53.634;9.880;2023-07-31T05:54:03;3.33;;;2.55;;
39958;SDS011;25639;53.634;9.880;2023-07-31T05:56:28;4.63;;;2.85;;
39958;SDS011;25639;53.634;9.880;2023-07-31T05:58:53;3.53;;;2.60;;
39958;SDS011;25639;53.634;9.880;2023-07-31T06:01:19;6.68;;;2.67;;
39958;SDS011;25639;53.634;9.880;2023-07-31T06:03:46;4.63;;;2.90;;
39958;SDS011;25639;53.634;9.880;2023-07-31T06:06:11;3.40;;;2.60;;
39958;SDS011;25639;53.634;9.880;2023-07-31T06:08:36;5.43;;;2.72;;
39958;SDS011;25639;53.634;9.880;2023-07-31T06:11:02;3.58;;;2.78;;
39958;SDS011;25639;53.634;9.880;2023-07-31T06:13:27;4.38;;;2.38;;
39958;SDS011;25639;53.634;9.880;2023-07-31T06:15:52;3.03;;;2.53;;
39958;SDS011;25639;53.634;9.880;2023-07-31T06:18:18;5.68;;;3.10;;
39958;SDS011;25639;53.634;9.880;2023-07-31T06:20:43;4.47;;;2.53;;
39958;SDS011;25639;53.634;9.880;2023-07-31T06:23:08;2.85;;;2.55;;
39958;SDS011;25639;53.634;9.880;2023-07-31T06:25:34;3.72;;;2.67;;
39958;SDS011;25639;53.634;9.880;2023-07-31T06:27:59;3.65;;;2.85;;
39958;SDS011;25639;53.634;9.880;2023-07-31T06:30:24;4.03;;;2.85;;
39958;SDS011;25639;53.634;9.880;2023-07-31T06:32:49;5.47;;;2.90;;
39958;SDS011;25639;53.634;9.880;2023-07-31T06:35:15;3.70;;;2.63;;
39958;SDS011;25639;53.634;9.880;2023-07-31T06:37:40;3.92;;;2.70;;
39958;SDS011;25639;53.634;9.880;2023-07-31T06:40:08;3.53;;;2.85;;
39958;SDS011;25639;53.634;9.880;2023-07-31T06:42:34;4.35;;;3.03;;
39958;SDS011;25639;53.634;9.880;2023-07-31T06:45:00;4.85;;;2.90;;
39958;SDS011;25639;53.634;9.880;2023-07-31T06:47:26;5.22;;;3.00;;
39958;SDS011;25639;53.634;9.880;2023-07-31T06:49:51;4.90;;;3.40;;
39958;SDS011;25639;53.634;9.880;2023-07-31T06:52:16;4.70;;;2.78;;
39958;SDS011;25639;53.634;9.880;2023-07-31T06:54:41;4.30;;;3.20;;
39958;SDS011;25639;53.634;9.880;2023-07-31T06:57:07;6.97;;;3.33;;
39958;SDS011;25639;53.634;9.880;2023-07-31T06:59:33;6.47;;;3.70;;
39958;SDS011;25639;53.634;9.880;2023-07-31T07:01:58;6.43;;;3.60;;
39958;SDS011;25639;53.634;9.880;2023-07-31T07:04:23;4.47;;;3.00;;
39958;SDS011;25639;53.634;9.880;2023-07-31T07:06:49;5.78;;;3.30;;
39958;SDS011;25639;53.634;9.880;2023-07-31T07:09:14;4.22;;;3.55;;
39958;SDS011;25639;53.634;9.880;2023-07-31T07:11:39;3.17;;;2.88;;
39958;SDS011;25639;53.634;9.880;2023-07-31T07:14:04;3.30;;;2.90;;
39958;SDS011;25639;53.634;9.880;2023-07-31T07:16:30;4.75;;;2.80;;
39958;SDS011;25639;53.634;9.880;2023-07-31T07:18:55;3.58;;;2.70;;
39958;SDS011;25639;53.634;9.880;2023-07-31T07:21:20;3.88;;;3.00;;
39958;SDS011;25639;53.634;9.880;2023-07-31T07:23:46;2.88;;;2.55;;
39958;SDS011;25639;53.634;9.880;2023-07-31T07:26:14;3.08;;;2.47;;
39958;SDS011;25639;53.634;9.880;2023-07-31T07:28:39;5.57;;;2.78;;
39958;SDS011;25639;53.634;9.880;2023-07-31T07:31:04;5.25;;;2.50;;
39958;SDS011;25639;53.634;9.880;2023-07-31T07:33:30;2.97;;;2.20;;
39958;SDS011;25639;53.634;9.880;2023-07-31T07:35:55;3.15;;;2.40;;
39958;SDS011;25639;53.634;9.880;2023-07-31T07:38:20;4.90;;;2.72;;
39958;SDS011;25639;53.634;9.880;2023-07-31T07:40:45;4.15;;;2.50;;
39958;SDS011;25639;53.634;9.880;2023-07-31T07:43:15;4.13;;;2.30;;
39958;SDS011;25639;53.634;9.880;2023-07-31T07:45:40;4.07;;;1.98;;
39958;SDS011;25639;53.634;9.880;2023-07-31T07:48:05;2.30;;;1.92;;
39958;SDS011;25639;53.634;9.880;2023-07-31T07:50:31;3.05;;;2.10;;
39958;SDS011;25639;53.634;9.880;2023-07-31T07:52:57;2.95;;;2.50;;
39958;SDS011;25639;53.634;9.880;2023-07-31T07:55:22;3.25;;;2.47;;
39958;SDS011;25639;53.634;9.880;2023-07-31T07:57:47;2.88;;;2.65;;
39958;SDS011;25639;53.634;9.880;2023-07-31T08:00:15;3.55;;;2.90;;
39958;SDS011;25639;53.634;9.880;2023-07-31T08:02:41;5.00;;;2.75;;
39958;SDS011;25639;53.634;9.880;2023-07-31T08:05:07;3.53;;;2.80;;
39958;SDS011;25639;53.634;9.880;2023-07-31T08:07:33;4.47;;;2.85;;
39958;SDS011;25639;53.634;9.880;2023-07-31T08:09:58;3.08;;;2.78;;
39958;SDS011;25639;53.634;9.880;2023-07-31T08:12:23;2.63;;;2.42;;
39958;SDS011;25639;53.634;9.880;2023-07-31T08:14:48;2.70;;;2.50;;
39958;SDS011;25639;53.634;9.880;2023-07-31T08:17:14;3.58;;;2.45;;
39958;SDS011;25639;53.634;9.880;2023-07-31T08:19:39;7.75;;;3.00;;
39958;SDS011;25639;53.634;9.880;2023-07-31T08:22:04;4.95;;;2.60;;
39958;SDS011;25639;53.634;9.880;2023-07-31T08:24:29;4.10;;;2.70;;
39958;SDS011;25639;53.634;9.880;2023-07-31T08:26:55;3.42;;;2.33;;
39958;SDS011;25639;53.634;9.880;2023-07-31T08:29:20;3.60;;;2.30;;
39958;SDS011;25639;53.634;9.880;2023-07-31T08:31:45;4.28;;;2.38;;
39958;SDS011;25639;53.634;9.880;2023-07-31T08:34:10;3.47;;;2.50;;
39958;SDS011;25639;53.634;9.880;2023-07-31T08:36:36;3.90;;;2.50;;
39958;SDS011;25639;53.634;9.880;2023-07-31T08:39:01;4.13;;;2.30;;
39958;SDS011;25639;53.634;9.880;2023-07-31T08:41:27;1.90;;;1.70;;
39958;SDS011;25639;53.634;9.880;2023-07-31T08:43:52;2.25;;;1.80;;
39958;SDS011;25639;53.634;9.880;2023-07-31T08:46:20;2.20;;;1.88;;
39958;SDS011;25639;53.634;9.880;2023-07-31T08:48:46;2.00;;;1.80;;
39958;SDS011;25639;53.634;9.880;2023-07-31T08:51:13;2.47;;;1.95;;
39958;SDS011;25639;53.634;9.880;2023-07-31T08:53:39;1.60;;;1.50;;
39958;SDS011;25639;53.634;9.880;2023-07-31T08:56:04;4.43;;;1.50;;
39958;SDS011;25639;53.634;9.880;2023-07-31T08:58:31;2.88;;;1.30;;
39958;SDS011;25639;53.634;9.880;2023-07-31T09:00:57;1.90;;;1.65;;
39958;SDS011;25639;53.634;9.880;2023-07-31T09:03:25;2.45;;;1.88;;
39958;SDS011;25639;53.634;9.880;2023-07-31T09:05:51;3.45;;;1.60;;
39958;SDS011;25639;53.634;9.880;2023-07-31T09:08:18;1.60;;;1.50;;
39958;SDS011;25639;53.634;9.880;2023-07-31T09:10:46;2.00;;;1.45;;
39958;SDS011;25639;53.634;9.880;2023-07-31T09:13:12;1.80;;;1.50;;
39958;SDS011;25639;53.634;9.880;2023-07-31T09:15:38;3.33;;;1.40;;
39958;SDS011;25639;53.634;9.880;2023-07-31T09:18:05;4.47;;;1.50;;
39958;SDS011;25639;53.634;9.880;2023-07-31T09:20:31;5.38;;;1.25;;
39958;SDS011;25639;53.634;9.880;2023-07-31T09:23:04;2.47;;;1.42;;
39958;SDS011;25639;53.634;9.880;2023-07-31T09:25:33;2.08;;;1.60;;
39958;SDS011;25639;53.634;9.880;2023-07-31T09:30:25;1.88;;;1.33;;
39958;SDS011;25639;53.634;9.880;2023-07-31T09:32:51;2.58;;;1.30;;
39958;SDS011;25639;53.634;9.880;2023-07-31T09:35:29;2.20;;;1.20;;
39958;SDS011;25639;53.634;9.880;2023-07-31T09:37:57;1.60;;;1.50;;
39958;SDS011;25639;53.634;9.880;2023-07-31T09:40:34;2.92;;;1.42;;
39958;SDS011;25639;53.634;9.880;2023-07-31T09:43:01;2.60;;;1.50;;
39958;SDS011;25639;53.634;9.880;2023-07-31T09:45:33;5.20;;;1.55;;
39958;SDS011;25639;53.634;9.880;2023-07-31T09:48:02;3.47;;;1.70;;
39958;SDS011;25639;53.634;9.880;2023-07-31T09:50:31;2.65;;;1.48;;
39958;SDS011;25639;53.634;9.880;2023-07-31T09:52:56;2.17;;;1.63;;
39958;SDS011;25639;53.634;9.880;2023-07-31T09:55:22;2.50;;;1.85;;
39958;SDS011;25639;53.634;9.880;2023-07-31T09:57:47;1.60;;;1.23;;
39958;SDS011;25639;53.634;9.880;2023-07-31T10:00:17;1.40;;;1.10;;
39958;SDS011;25639;53.634;9.880;2023-07-31T10:02:47;2.70;;;1.25;;
39958;SDS011;25639;53.634;9.880;2023-07-31T10:05:16;1.58;;;1.13;;
39958;SDS011;25639;53.634;9.880;2023-07-31T10:07:42;1.88;;;1.20;;
39958;SDS011;25639;53.634;9.880;2023-07-31T10:10:16;7.03;;;1.45;;
39958;SDS011;25639;53.634;9.880;2023-07-31T10:12:41;2.58;;;1.10;;
39958;SDS011;25639;53.634;9.880;2023-07-31T10:15:08;1.35;;;1.20;;
39958;SDS011;25639;53.634;9.880;2023-07-31T10:17:34;1.42;;;0.90;;
39958;SDS011;25639;53.634;9.880;2023-07-31T10:20:02;1.58;;;1.00;;
39958;SDS011;25639;53.634;9.880;2023-07-31T10:22:30;1.52;;;1.20;;
39958;SDS011;25639;53.634;9.880;2023-07-31T10:24:57;1.10;;;1.00;;
39958;SDS011;25639;53.634;9.880;2023-07-31T10:27:24;1.45;;;1.20;;
39958;SDS011;25639;53.634;9.880;2023-07-31T10:29:49;1.95;;;1.20;;
39958;SDS011;25639;53.634;9.880;2023-07-31T10:32:15;1.95;;;1.05;;
39958;SDS011;25639;53.634;9.880;2023-07-31T10:34:42;2.22;;;1.00;;
39958;SDS011;25639;53.634;9.880;2023-07-31T10:39:59;1.23;;;0.85;;
39958;SDS011;25639;53.634;9.880;2023-07-31T10:42:30;1.05;;;0.80;;
39958;SDS011;25639;53.634;9.880;2023-07-31T10:45:01;1.02;;;0.60;;
39958;SDS011;25639;53.634;9.880;2023-07-31T10:47:36;0.85;;;0.40;;
39958;SDS011;25639;53.634;9.880;2023-07-31T10:50:18;0.43;;;0.35;;
39958;SDS011;25639;53.634;9.880;2023-07-31T10:57:52;1.45;;;0.43;;
39958;SDS011;25639;53.634;9.880;2023-07-31T11:03:04;0.50;;;0.43;;
39958;SDS011;25639;53.634;9.880;2023-07-31T11:08:41;0.57;;;0.52;;
39958;SDS011;25639;53.634;9.880;2023-07-31T11:11:08;1.65;;;0.40;;
39958;SDS011;25639;53.634;9.880;2023-07-31T11:16:08;0.40;;;0.40;;
39958;SDS011;25639;53.634;9.880;2023-07-31T11:18:34;0.57;;;0.40;;
39958;SDS011;25639;53.634;9.880;2023-07-31T11:21:01;1.02;;;0.45;;
39958;SDS011;25639;53.634;9.880;2023-07-31T11:23:27;1.70;;;0.60;;
39958;SDS011;25639;53.634;9.880;2023-07-31T11:25:52;4.43;;;0.70;;
39958;SDS011;25639;53.634;9.880;2023-07-31T11:28:18;1.15;;;0.70;;
39958;SDS011;25639;53.634;9.880;2023-07-31T11:30:45;0.70;;;0.40;;
39958;SDS011;25639;53.634;9.880;2023-07-31T11:33:11;0.70;;;0.52;;
39958;SDS011;25639;53.634;9.880;2023-07-31T11:35:43;2.83;;;0.63;;
39958;SDS011;25639;53.634;9.880;2023-07-31T11:38:12;2.25;;;0.60;;
39958;SDS011;25639;53.634;9.880;2023-07-31T11:40:46;0.90;;;0.50;;
39958;SDS011;25639;53.634;9.880;2023-07-31T11:43:13;0.68;;;0.63;;
39958;SDS011;25639;53.634;9.880;2023-07-31T11:45:42;0.90;;;0.70;;
39958;SDS011;25639;53.634;9.880;2023-07-31T11:48:17;0.93;;;0.70;;
39958;SDS011;25639;53.634;9.880;2023-07-31T11:50:44;1.83;;;0.90;;
39958;SDS011;25639;53.634;9.880;2023-07-31T11:53:14;2.20;;;1.05;;
39958;SDS011;25639;53.634;9.880;2023-07-31T11:55:42;1.50;;;0.80;;
39958;SDS011;25639;53.634;9.880;2023-07-31T11:58:08;0.77;;;0.52;;
39958;SDS011;25639;53.634;9.880;2023-07-31T12:00:33;1.73;;;0.90;;
39958;SDS011;25639;53.634;9.880;2023-07-31T12:02:59;1.10;;;0.60;;
39958;SDS011;25639;53.634;9.880;2023-07-31T12:05:24;2.75;;;0.70;;
39958;SDS011;25639;53.634;9.880;2023-07-31T12:07:51;0.85;;;0.70;;
39958;SDS011;25639;53.634;9.880;2023-07-31T12:10:24;0.68;;;0.60;;
39958;SDS011;25639;53.634;9.880;2023-07-31T12:15:37;0.90;;;0.60;;
39958;SDS011;25639;53.634;9.880;2023-07-31T12:18:08;1.20;;;0.60;;
39958;SDS011;25639;53.634;9.880;2023-07-31T12:20:44;1.90;;;0.70;;
39958;SDS011;25639;53.634;9.880;2023-07-31T12:23:18;1.90;;;0.73;;
39958;SDS011;25639;53.634;9.880;2023-07-31T12:26:01;1.23;;;0.77;;
39958;SDS011;25639;53.634;9.880;2023-07-31T12:28:27;0.70;;;0.55;;
39958;SDS011;25639;53.634;9.880;2023-07-31T12:30:52;0.90;;;0.70;;
39958;SDS011;25639;53.634;9.880;2023-07-31T12:33:22;0.65;;;0.65;;
39958;SDS011;25639;53.634;9.880;2023-07-31T12:35:48;0.82;;;0.68;;
39958;SDS011;25639;53.634;9.880;2023-07-31T12:38:13;1.35;;;0.55;;
39958;SDS011;25639;53.634;9.880;2023-07-31T12:40:42;0.70;;;0.70;;
39958;SDS011;25639;53.634;9.880;2023-07-31T12:43:07;1.23;;;0.52;;
39958;SDS011;25639;53.634;9.880;2023-07-31T12:45:34;2.00;;;0.80;;
39958;SDS011;25639;53.634;9.880;2023-07-31T12:47:59;1.63;;;0.60;;
39958;SDS011;25639;53.634;9.880;2023-07-31T12:50:25;1.15;;;0.57;;
39958;SDS011;25639;53.634;9.880;2023-07-31T12:52:51;0.80;;;0.50;;
39958;SDS011;25639;53.634;9.880;2023-07-31T12:55:18;0.93;;;0.63;;
39958;SDS011;25639;53.634;9.880;2023-07-31T12:57:43;1.95;;;0.82;;
39958;SDS011;25639;53.634;9.880;2023-07-31T13:00:09;0.80;;;0.60;;
39958;SDS011;25639;53.634;9.880;2023-07-31T13:02:35;0.90;;;0.63;;
39958;SDS011;25639;53.634;9.880;2023-07-31T13:05:00;0.93;;;0.50;;
39958;SDS011;25639;53.634;9.880;2023-07-31T13:07:26;0.40;;;0.40;;
39958;SDS011;25639;53.634;9.880;2023-07-31T13:09:51;0.55;;;0.55;;
39958;SDS011;25639;53.634;9.880;2023-07-31T13:12:17;0.60;;;0.50;;
39958;SDS011;25639;53.634;9.880;2023-07-31T13:14:42;0.93;;;0.50;;
39958;SDS011;25639;53.634;9.880;2023-07-31T13:17:08;1.00;;;0.70;;
39958;SDS011;25639;53.634;9.880;2023-07-31T13:19:34;1.35;;;0.60;;
39958;SDS011;25639;53.634;9.880;2023-07-31T13:21:59;1.15;;;0.80;;
39958;SDS011;25639;53.634;9.880;2023-07-31T13:24:24;0.50;;;0.40;;
39958;SDS011;25639;53.634;9.880;2023-07-31T13:26:49;0.65;;;0.55;;
39958;SDS011;25639;53.634;9.880;2023-07-31T13:29:15;1.42;;;0.50;;
39958;SDS011;25639;53.634;9.880;2023-07-31T13:31:40;0.50;;;0.50;;
39958;SDS011;25639;53.634;9.880;2023-07-31T13:34:05;1.38;;;0.88;;
39958;SDS011;25639;53.634;9.880;2023-07-31T13:36:30;1.90;;;0.60;;
39958;SDS011;25639;53.634;9.880;2023-07-31T13:38:56;0.73;;;0.50;;
39958;SDS011;25639;53.634;9.880;2023-07-31T13:41:21;0.70;;;0.50;;
39958;SDS011;25639;53.634;9.880;2023-07-31T13:43:46;0.98;;;0.40;;
39958;SDS011;25639;53.634;9.880;2023-07-31T13:46:11;0.40;;;0.40;;
39958;SDS011;25639;53.634;9.880;2023-07-31T13:48:37;1.85;;;0.45;;
39958;SDS011;25639;53.634;9.880;2023-07-31T13:51:02;1.98;;;0.52;;
39958;SDS011;25639;53.634;9.880;2023-07-31T13:53:27;1.15;;;0.60;;
39958;SDS011;25639;53.634;9.880;2023-07-31T13:55:53;0.70;;;0.50;;
39958;SDS011;25639;53.634;9.880;2023-07-31T13:58:18;1.20;;;0.50;;
39958;SDS011;25639;53.634;9.880;2023-07-31T14:00:43;1.33;;;0.60;;
39958;SDS011;25639;53.634;9.880;2023-07-31T14:03:09;1.42;;;0.63;;
39958;SDS011;25639;53.634;9.880;2023-07-31T14:05:34;3.03;;;1.08;;
39958;SDS011;25639;53.634;9.880;2023-07-31T14:08:00;4.05;;;1.20;;
39958;SDS011;25639;53.634;9.880;2023-07-31T14:10:25;1.17;;;0.80;;
39958;SDS011;25639;53.634;9.880;2023-07-31T14:12:51;0.73;;;0.60;;
39958;SDS011;25639;53.634;9.880;2023-07-31T14:15:16;0.85;;;0.82;;
39958;SDS011;25639;53.634;9.880;2023-07-31T14:17:41;1.52;;;0.60;;
39958;SDS011;25639;53.634;9.880;2023-07-31T14:20:07;0.80;;;0.80;;
39958;SDS011;25639;53.634;9.880;2023-07-31T14:22:33;1.38;;;0.65;;
39958;SDS011;25639;53.634;9.880;2023-07-31T14:24:59;2.30;;;1.00;;
39958;SDS011;25639;53.634;9.880;2023-07-31T14:27:25;1.05;;;0.70;;
39958;SDS011;25639;53.634;9.880;2023-07-31T14:29:50;0.98;;;0.80;;
39958;SDS011;25639;53.634;9.880;2023-07-31T14:32:15;1.05;;;0.60;;
39958;SDS011;25639;53.634;9.880;2023-07-31T14:34:40;0.63;;;0.60;;
39958;SDS011;25639;53.634;9.880;2023-07-31T14:37:06;1.35;;;0.60;;
39958;SDS011;25639;53.634;9.880;2023-07-31T14:39:31;1.08;;;0.55;;
39958;SDS011;25639;53.634;9.880;2023-07-31T14:41:56;2.65;;;0.85;;
39958;SDS011;25639;53.634;9.880;2023-07-31T14:44:22;1.10;;;0.75;;
39958;SDS011;25639;53.634;9.880;2023-07-31T14:46:47;1.10;;;0.60;;
39958;SDS011;25639;53.634;9.880;2023-07-31T14:49:12;0.65;;;0.60;;
39958;SDS011;25639;53.634;9.880;2023-07-31T14:51:37;1.65;;;0.60;;
39958;SDS011;25639;53.634;9.880;2023-07-31T14:54:03;0.93;;;0.52;;
39958;SDS011;25639;53.634;9.880;2023-07-31T14:56:28;1.95;;;0.63;;
39958;SDS011;25639;53.634;9.880;2023-07-31T14:58:53;1.30;;;0.70;;
39958;SDS011;25639;53.634;9.880;2023-07-31T15:01:18;1.30;;;0.70;;
39958;SDS011;25639;53.634;9.880;2023-07-31T15:03:44;0.70;;;0.60;;